Latest Weather Observations for Cape Sorell

IDT60801

Issued at 8:32 am EDT Sunday 26 March 2017 (issued every 30 minutes, with the page automatically refreshed every 10 minutes)

About weather observations | Map of weather stations | Latest weather observations for TAS | Other Formats
Station Details ID: 097000 Name: CAPE SORELL Lat: -42.20 Lon: 145.17 Height: 19.3 m
Data from the previous 72 hours. | See also: Recent months at Cape Sorell
Date/Time
EDT
Temp
°C
App
Temp
°C
Dew
Point
°C
Rel
Hum
%
Delta-T
°C
Wind Press
QNH
hPa
Press
MSL
hPa
Rain since
9am
mm
Dir  Spd
km/h
Gust
km/h
Spd
kts
Gust
kts
26/08:30am 16.9 17.5 15.2 90 1.0 ENE 6 9 3 5 1014.6 1014.6 0.0
26/08:00am 16.7 17.6 15.1 90 0.9 NE 4 4 2 2 1014.4 1014.4 0.0
26/07:30am 16.6 17.8 15.0 90 0.9 NE 2 6 1 3 1014.1 1014.1 0.0
26/07:00am 16.3 16.4 14.5 89 1.0 E 7 7 4 4 1013.8 1013.8 0.0
26/06:30am 16.3 16.4 14.5 89 1.0 ENE 7 9 4 5 1013.3 1013.3 0.0
26/06:00am 17.0 17.0 15.2 89 1.0 E 9 11 5 6 1013.2 1013.2 0.0
26/05:30am 16.9 17.2 14.9 88 1.2 ESE 7 9 4 5 1013.2 1013.2 0.0
26/05:00am 16.7 16.9 14.7 88 1.2 SE 7 9 4 5 1013.0 1013.0 0.0
26/04:30am 16.8 17.0 14.8 88 1.2 ENE 7 9 4 5 1013.0 1013.0 0.0
26/04:00am 16.8 17.2 14.8 88 1.2 NE 6 7 3 4 1013.2 1013.2 0.0
26/03:30am 16.6 16.4 14.6 88 1.1 ENE 9 9 5 5 1013.4 1013.4 0.0
26/03:00am 16.5 16.6 14.5 88 1.1 NE 7 9 4 5 1013.4 1013.4 0.0
26/02:30am 17.0 17.3 15.0 88 1.2 NE 7 9 4 5 1013.7 1013.7 0.0
26/02:00am 17.0 17.9 15.0 88 1.2 NE 4 4 2 2 1013.7 1013.7 0.0
26/01:30am 17.1 17.4 15.1 88 1.2 ENE 7 7 4 4 1013.6 1013.6 0.0
26/01:00am 17.3 17.3 15.3 88 1.2 ENE 9 9 5 5 1013.6 1013.6 0.0
26/12:30am 17.2 17.2 15.2 88 1.2 ENE 9 11 5 6 1013.5 1013.5 0.0
26/12:00am 17.4 17.5 15.4 88 1.2 E 9 11 5 6 1013.5 1013.5 0.0
 
Date/Time
EDT
Temp
°C
App
Temp
°C
Dew
Point
°C
Rel
Hum
%
Delta-T
°C
Wind Press
QNH
hPa
Press
MSL
hPa
Rain since
9am
mm
Dir  Spd
km/h
Gust
km/h
Spd
kts
Gust
kts
25/11:30pm 17.4 17.1 15.4 88 1.2 ENE 11 13 6 7 1013.6 1013.6 0.0
25/11:00pm 17.4 17.0 15.2 87 1.3 ENE 11 13 6 7 1013.6 1013.6 0.0
25/10:30pm 17.2 16.7 15.0 87 1.3 ENE 11 13 6 7 1013.4 1013.4 0.0
25/10:00pm 17.2 16.7 15.0 87 1.3 ENE 11 13 6 7 1013.1 1013.1 0.0
25/09:30pm 17.2 16.7 15.0 87 1.3 E 11 13 6 7 1012.8 1012.8 0.0
25/09:00pm 17.0 16.8 14.8 87 1.3 E 9 11 5 6 1012.5 1012.5 0.0
25/08:30pm 17.1 16.5 14.7 86 1.4 E 11 13 6 7 1012.3 1012.3 0.0
25/08:00pm 17.1 16.5 14.7 86 1.4 E 11 13 6 7 1012.0 1012.0 0.0
25/07:30pm 17.3 17.1 14.8 85 1.4 ENE 9 11 5 6 1011.9 1011.9 0.0
25/07:00pm 17.8 17.8 15.1 84 1.6 ENE 9 13 5 7 1011.7 1011.7 0.0
25/06:30pm 17.7 17.6 15.0 84 1.6 ENE 9 13 5 7 1011.7 1011.7 0.0
25/06:00pm 17.7 16.4 14.8 83 1.7 ENE 15 17 8 9 1011.5 1011.5 0.0
25/05:30pm 17.9 17.4 14.8 82 1.8 NE 11 17 6 9 1011.3 1011.3 0.0
25/05:00pm 17.7 16.6 14.4 81 1.9 NE 13 17 7 9 1011.3 1011.3 0.0
25/04:30pm 18.1 17.0 14.2 78 2.2 NNE 13 17 7 9 1011.3 1011.3 0.0
25/04:00pm 18.2 16.6 13.9 76 2.5 NNE 15 17 8 9 1011.4 1011.4 0.0
25/03:30pm 18.9 17.9 14.6 76 2.5 NE 13 15 7 8 1011.3 1011.3 0.0
25/03:00pm 18.4 18.9 14.1 76 2.5 NNE 4 7 2 4 1011.6 1011.6 0.0
25/02:30pm 18.4 18.4 14.1 76 2.5 NNW 7 11 4 6 1011.8 1011.8 0.0
25/02:00pm 18.1 16.5 13.8 76 2.5 N 15 20 8 11 1012.0 1012.0 0.0
25/01:30pm 18.1 17.2 13.6 75 2.6 NNE 11 17 6 9 1012.1 1012.1 0.0
25/01:00pm 18.1 18.1 13.6 75 2.6 ENE 6 9 3 5 1012.2 1012.2 0.0
25/12:30pm 17.5 16.9 13.4 77 2.3 ENE 9 13 5 7 1012.2 1012.2 0.0
25/12:00pm 17.8 17.3 13.9 78 2.2 E 9 13 5 7 1012.4 1012.4 0.0
25/11:30am 17.1 16.9 13.6 80 2.0 E 7 11 4 6 1012.7 1012.7 0.0
25/11:00am 16.4 15.6 12.9 80 1.9 E 9 15 5 8 1012.8 1012.8 0.0
25/10:30am 15.7 14.8 12.6 82 1.7 E 9 13 5 7 1012.7 1012.7 0.0
25/10:00am 15.2 14.6 12.3 83 1.6 E 7 11 4 6 1012.8 1012.8 0.0
25/09:30am 14.7 13.6 12.0 84 1.5 E 9 13 5 7 1012.9 1012.9 0.0
25/09:00am 14.1 12.1 11.4 84 1.4 E 13 13 7 7 1012.9 1012.9 0.8
25/08:30am 13.6 11.4 10.8 83 1.5 E 13 15 7 8 1012.9 1012.9 0.8
25/08:00am 14.4 13.5 11.4 82 1.6 ENE 7 9 4 5 1013.1 1013.1 0.6
25/07:30am 14.7 13.1 11.5 81 1.7 NE 11 15 6 8 1013.1 1013.1 0.4
25/07:00am 14.3 12.7 11.5 83 1.5 NE 11 13 6 7 1013.5 1013.5 0.4
25/06:30am 13.8 12.4 10.8 82 1.6 ENE 9 11 5 6 1013.7 1013.7 0.4
25/06:00am 13.7 11.0 10.5 81 1.7 E 15 19 8 10 1013.5 1013.5 0.4
25/05:30am 14.1 12.2 10.5 79 1.9 ENE 11 17 6 9 1014.1 1014.1 0.2
25/05:00am 15.3 14.1 11.7 79 1.9 NE 9 17 5 9 1014.7 1014.7 0.0
25/04:30am 15.1 14.4 11.5 79 1.9 ENE 6 9 3 5 1015.1 1015.1 0.0
25/04:00am 15.1 13.5 11.5 79 1.9 ENE 11 13 6 7 1014.7 1014.7 0.0
25/03:30am 15.1 13.4 11.1 77 2.1 ENE 11 15 6 8 1014.6 1014.6 0.0
25/03:00am 15.7 12.9 11.3 75 2.4 NE 17 20 9 11 1015.1 1015.1 0.0
25/02:30am 15.2 13.4 11.0 76 2.2 NE 11 13 6 7 1015.8 1015.7 0.0
25/02:00am 15.1 13.6 10.7 75 2.3 ENE 9 11 5 6 1016.3 1016.2 0.0
25/01:30am 15.5 14.1 10.9 74 2.4 NE 9 11 5 6 1016.4 1016.3 0.0
25/01:00am 16.1 14.8 11.1 72 2.7 NE 9 13 5 7 1016.6 1016.5 0.0
25/12:30am 16.4 13.9 10.9 70 2.9 NNE 15 19 8 10 1016.9 1016.8 0.0
25/12:00am 16.6 13.6 10.7 68 3.1 NNE 17 20 9 11 1017.5 1017.4 0.0
 
Date/Time
EDT
Temp
°C
App
Temp
°C
Dew
Point
°C
Rel
Hum
%
Delta-T
°C
Wind Press
QNH
hPa
Press
MSL
hPa
Rain since
9am
mm
Dir  Spd
km/h
Gust
km/h
Spd
kts
Gust
kts
24/11:30pm 16.9 14.8 11.0 68 3.2 N 13 17 7 9 1017.5 1017.4 0.0
24/11:00pm 17.1 14.3 11.4 69 3.1 N 17 20 9 11 1017.6 1017.5 0.0
24/10:30pm 17.1 15.4 12.4 74 2.6 N 13 17 7 9 1018.0 1017.9 0.0
24/10:00pm 16.6 15.8 12.8 78 2.1 NNW 9 13 5 7 1018.1 1018.0 0.0
24/09:30pm 16.8 16.6 13.1 79 2.1 NW 6 9 3 5 1018.3 1018.2 0.0
24/09:00pm 16.7 16.5 13.0 79 2.1 W 6 7 3 4 1018.3 1018.2 0.0
24/08:30pm 16.6 16.3 12.8 78 2.1 NNW 6 7 3 4 1018.2 1018.1 0.0
24/08:00pm 16.5 16.1 12.5 77 2.2 NNW 6 6 3 3 1018.3 1018.2 0.0
24/07:30pm 16.1 15.6 11.9 76 2.3 NE 6 9 3 5 1018.1 1018.0 0.0
24/07:00pm 16.7 16.3 12.3 75 2.4 S 6 7 3 4 1018.2 1018.1 0.0
24/06:30pm 16.9 15.6 12.4 75 2.5 S 11 15 6 8 1018.6 1018.5 0.0
24/06:00pm 17.0 15.3 12.3 74 2.6 S 13 17 7 9 1018.6 1018.5 0.0
24/05:30pm 17.3 14.8 12.4 73 2.7 S 17 19 9 10 1019.1 1019.0 0.0
24/05:00pm 17.4 14.9 12.3 72 2.8 S 17 19 9 10 1018.7 1018.6 0.0
24/04:30pm 17.6 15.5 12.5 72 2.8 SSW 15 17 8 9 1019.2 1019.1 0.0
24/04:00pm 18.0 15.7 12.9 72 2.9 SW 17 19 9 10 1019.6 1019.5 0.0
24/03:30pm 18.1 16.1 12.8 71 3.0 SW 15 17 8 9 1019.8 1019.7 0.0
24/03:00pm 18.2 16.9 12.6 70 3.1 SW 11 15 6 8 1020.0 1019.9 0.0
24/02:30pm 19.1 18.4 13.1 68 3.4 SW 9 11 5 6 1020.6 1020.5 0.0
24/02:00pm 18.8 17.6 12.8 68 3.4 WSW 11 11 6 6 1021.9 1021.8 0.0
24/01:30pm 18.9 18.5 12.9 68 3.4 W 7 9 4 5 1022.5 1022.4 0.0
24/01:00pm 19.5 19.8 13.4 68 3.5 NNW 4 6 2 3 1022.0 1021.9 0.0
24/12:30pm 19.0 19.6 14.3 74 2.7 NNE 4 6 2 3 1022.4 1022.3 0.0
24/12:00pm 17.3 17.2 13.2 77 2.3 NNE 6 7 3 4 1022.7 1022.6 0.0
24/11:30am 17.1 16.9 13.6 80 2.0 ENE 7 11 4 6 1022.9 1022.9 0.0
24/11:00am 16.7 15.8 13.6 82 1.7 ENE 11 13 6 7 1023.2 1023.2 0.0
24/10:30am 15.9 14.8 13.2 84 1.5 NE 11 15 6 8 1023.7 1023.7 0.0
24/10:00am 15.8 14.5 13.6 87 1.2 NE 13 17 7 9 1023.7 1023.7 0.0
24/09:30am 15.4 14.8 13.6 89 1.0 ENE 9 13 5 7 1024.0 1024.0 0.0
24/09:00am 14.5 14.1 12.9 90 0.9 ENE 7 7 4 4 1024.1 1024.1 0.0
24/08:30am 14.1 13.7 12.5 90 0.9 ENE 6 7 3 4 1023.6 1023.6 0.0
24/08:00am 13.4 12.3 12.0 91 0.7 ENE 9 11 5 6 1023.1 1023.1 0.0
24/07:30am 12.6 11.2 11.0 90 0.8 ENE 9 9 5 5 1022.8 1022.8 0.0
24/07:00am 12.8 11.5 11.2 90 0.8 NE 9 11 5 6 1022.9 1022.9 0.0
24/06:30am 12.6 10.8 11.0 90 0.8 ENE 11 11 6 6 1022.7 1022.6 0.0
24/06:00am 12.8 10.3 11.2 90 0.8 E 15 15 8 8 1022.7 1022.6 0.0
24/05:30am 12.7 10.6 11.1 90 0.8 E 13 15 7 8 1022.5 1022.4 0.0
24/05:00am 12.5 9.9 10.7 89 0.9 E 15 15 8 8 1022.5 1022.4 0.0
24/04:30am 12.9 10.8 11.1 89 0.9 ENE 13 17 7 9 1022.7 1022.6 0.0
24/04:00am 13.7 12.6 11.9 89 1.0 ENE 9 13 5 7 1023.1 1023.1 0.0
24/03:30am 13.6 12.8 11.8 89 1.0 NE 7 11 4 6 1023.3 1023.3 0.0
24/03:00am 13.6 12.5 11.8 89 1.0 NE 9 11 5 6 1023.6 1023.6 0.0
24/02:30am 12.8 11.8 10.9 88 1.0 NE 7 9 4 5 1023.7 1023.7 0.0
24/02:00am 13.5 12.8 11.4 87 1.1 NNE 6 7 3 4 1023.6 1023.6 0.0
24/01:30am 14.4 13.4 12.3 87 1.1 NNE 9 11 5 6 1023.3 1023.3 0.0
24/01:00am 13.6 12.7 11.3 86 1.2 NE 7 9 4 5 1022.9 1022.9 0.0
24/12:30am 13.2 12.1 10.7 85 1.3 NE 7 7 4 4 1023.0 1023.0 0.0
24/12:00am 14.0 13.2 11.2 83 1.5 NE 6 6 3 3 1023.5 1023.5 0.0
 
Date/Time
EDT
Temp
°C
App
Temp
°C
Dew
Point
°C
Rel
Hum
%
Delta-T
°C
Wind Press
QNH
hPa
Press
MSL
hPa
Rain since
9am
mm
Dir  Spd
km/h
Gust
km/h
Spd
kts
Gust
kts
23/11:30pm 13.8 12.3 10.4 80 1.8 ENE 9 9 5 5 1023.5 1023.5 0.0
23/11:00pm 14.7 14.5 10.5 76 2.2 N 2 6 1 3 1024.1 1024.1 0.0
23/10:30pm 15.1 15.0 10.7 75 2.3 W 2 4 1 2 1024.6 1024.6 0.0
23/10:00pm 15.3 15.5 10.7 74 2.4 CALM 0 0 0 0 1024.7 1024.7 0.0
23/09:30pm 15.4 15.7 10.8 74 2.4 CALM 0 0 0 0 1024.8 1024.8 0.0
23/09:00pm 15.1 15.2 10.3 73 2.5 CALM 0 0 0 0 1024.4 1024.4 0.0
23/08:30pm 14.8 14.9 10.0 73 2.5 CALM 0 0 0 0 1024.3 1024.3 0.0
23/08:00pm 15.1 15.2 10.1 72 2.6 CALM 0 0 0 0 1024.1 1024.1 0.0
23/07:30pm 16.0 15.9 10.7 71 2.8 S 2 4 1 2 1023.8 1023.8 0.0
23/07:00pm 17.1 16.3 11.6 70 3.0 SSW 7 9 4 5 1023.7 1023.7 0.0
23/06:30pm 17.8 17.0 11.8 68 3.3 SSW 7 9 4 5 1023.6 1023.6 0.0
23/06:00pm 18.3 17.6 12.1 67 3.4 SSW 7 9 4 5 1023.5 1023.5 0.0
23/05:30pm 18.7 17.0 12.5 67 3.5 SW 13 15 7 8 1023.8 1023.8 0.0
23/05:00pm 18.7 16.3 12.7 68 3.3 WSW 17 19 9 10 1023.8 1023.8 0.0
23/04:30pm 18.7 15.7 12.7 68 3.4 WSW 20 24 11 13 1023.9 1023.9 0.0
23/04:00pm 18.7 15.3 12.5 67 3.4 WSW 22 28 12 15 1023.8 1023.8 0.0
23/03:30pm 18.9 15.9 12.6 67 3.5 WSW 20 24 11 13 1023.8 1023.8 0.0
23/03:00pm 19.3 16.9 12.6 65 3.7 WSW 17 22 9 12 1023.9 1023.9 0.0
23/02:30pm 19.6 18.1 13.1 66 3.7 W 13 20 7 11 1024.1 1024.1 0.0
23/02:00pm 19.4 18.2 12.7 65 3.8 W 11 13 6 7 1024.1 1024.1 0.0
23/01:30pm 21.3 21.0 14.5 65 4.0 WNW 9 15 5 8 1024.1 1024.1 0.0
23/01:00pm 21.3 21.2 14.9 67 3.8 NW 9 13 5 7 1024.5 1024.5 0.0
23/12:30pm 20.4 19.7 14.3 68 3.5 NW 11 13 6 7 1024.6 1024.6 0.0
23/12:00pm 21.2 20.7 14.8 67 3.7 NW 11 13 6 7 1025.0 1025.0 0.0
23/11:30am 20.4 19.8 14.7 70 3.3 NW 11 17 6 9 1025.1 1025.1 0.0
23/11:00am 18.4 17.2 13.9 75 2.6 NW 13 17 7 9 1025.2 1025.2 0.0
23/10:30am 17.2 14.9 12.9 76 2.4 WNW 17 20 9 11 1025.1 1025.1 0.0
23/10:00am 17.7 15.3 13.8 78 2.2 WNW 19 24 10 13 1024.9 1024.9 0.0
23/09:30am 17.4 15.3 13.7 79 2.1 NW 17 28 9 15 1024.9 1024.9 0.0
23/09:00am 16.6 14.4 13.3 81 1.8 NW 17 24 9 13 1024.6 1024.6 0.0

Other Formats:

Comma delimited format used in spreadsheet applications
http://www.bom.gov.au/fwo/IDT60801/IDT60801.94974.axf

JavaScript Object Notation format (JSON) in row-major order
http://www.bom.gov.au/fwo/IDT60801/IDT60801.94974.json